Time;durP1;ratioP1;P1;durP2;ratioP2;P2;SDS_P1;SDS_P2;PMS_P1;PMS_P2;Temp;Humidity;BMP_temperature;BMP_pressure;BME280_temperature;BME280_humidity;BME280_pressure;Samples;Min_cycle;Max_cycle;Signal;HPM_P1;HPM_P2
2023/07/04 00:01:47;;;;;;;2.90;1.30;;;15.30;99.90;;;;;;5047365;28;20090;-42
2023/07/04 00:04:15;;;;;;;4.97;1.35;;;15.30;99.90;;;;;;5046800;28;20032;-45
2023/07/04 00:06:45;;;;;;;4.55;1.48;;;15.30;99.90;;;;;;5047763;28;20080;-42
2023/07/04 00:09:10;;;;;;;3.88;1.23;;;15.30;99.90;;;;;;5046538;28;20909;-42
2023/07/04 00:11:36;;;;;;;3.42;1.63;;;15.30;99.90;;;;;;5046302;28;20075;-42
2023/07/04 00:14:03;;;;;;;3.88;1.65;;;15.30;99.90;;;;;;5047412;28;20427;-42
2023/07/04 00:16:29;;;;;;;2.42;1.02;;;15.30;99.90;;;;;;5036618;28;20035;-43
2023/07/04 00:18:54;;;;;;;3.17;1.23;;;15.30;99.90;;;;;;5045962;28;20037;-42
2023/07/04 00:21:20;;;;;;;2.78;1.30;;;15.30;99.90;;;;;;5046655;28;20061;-42
2023/07/04 00:23:52;;;;;;;2.83;1.10;;;15.30;99.90;;;;;;5047403;28;20515;-42
2023/07/04 00:26:20;;;;;;;3.45;1.35;;;15.30;99.90;;;;;;5045974;28;20439;-42
2023/07/04 00:28:47;;;;;;;4.30;1.20;;;15.30;99.90;;;;;;5046925;28;20459;-42
2023/07/04 00:31:16;;;;;;;3.80;1.40;;;15.30;99.90;;;;;;5046839;28;20399;-42
2023/07/04 00:33:43;;;;;;;4.28;1.23;;;15.30;99.90;;;;;;5046050;28;20033;-42
2023/07/04 00:36:10;;;;;;;5.00;1.25;;;15.30;99.90;;;;;;5046481;28;20039;-42
2023/07/04 00:38:41;;;;;;;4.90;1.73;;;15.20;99.90;;;;;;5046396;28;20466;-42
2023/07/04 00:41:10;;;;;;;3.40;1.42;;;15.20;99.90;;;;;;5046137;28;20037;-42
2023/07/04 00:44:13;;;;;;;2.42;1.50;;;15.10;99.90;;;;;;5046040;28;20029;-42
2023/07/04 00:46:52;;;;;;;3.15;1.52;;;15.10;99.90;;;;;;5045307;28;20067;-43
2023/07/04 00:49:28;;;;;;;2.22;1.40;;;15.10;99.90;;;;;;5046050;28;20033;-42
2023/07/04 00:51:57;;;;;;;2.42;1.30;;;15.10;99.90;;;;;;5046015;28;20495;-42
2023/07/04 00:54:24;;;;;;;4.22;1.60;;;15.10;99.90;;;;;;5045739;28;20128;-43
2023/07/04 00:56:57;;;;;;;3.10;1.10;;;15.10;99.90;;;;;;5045987;28;20108;-42
2023/07/04 00:59:23;;;;;;;2.72;1.10;;;15.10;99.90;;;;;;5046382;28;20040;-43
2023/07/04 01:01:48;;;;;;;3.03;0.90;;;15.00;99.90;;;;;;5044903;28;20086;-42
2023/07/04 01:04:14;;;;;;;1.38;0.95;;;15.10;99.90;;;;;;5045789;28;20128;-42
2023/07/04 01:06:55;;;;;;;2.53;0.98;;;15.00;99.90;;;;;;5045201;28;20049;-42
2023/07/04 01:09:23;;;;;;;2.75;1.00;;;15.10;99.90;;;;;;5045801;28;20013;-43
2023/07/04 01:11:50;;;;;;;2.97;1.15;;;15.00;99.90;;;;;;5045443;28;20378;-43
2023/07/04 01:14:18;;;;;;;3.90;1.13;;;15.00;99.90;;;;;;5045314;28;20029;-43
2023/07/04 01:16:44;;;;;;;4.22;1.67;;;15.10;99.90;;;;;;5045556;28;20090;-42
2023/07/04 01:19:12;;;;;;;4.10;1.60;;;15.00;99.90;;;;;;5045840;28;20041;-42
2023/07/04 01:21:37;;;;;;;4.63;1.40;;;15.00;99.90;;;;;;5044875;28;20021;-42
2023/07/04 01:24:22;;;;;;;4.38;1.60;;;14.90;99.90;;;;;;5045495;28;20090;-42
2023/07/04 01:26:50;;;;;;;3.13;1.00;;;14.90;99.90;;;;;;5045292;28;20036;-41
2023/07/04 01:29:17;;;;;;;3.67;1.63;;;14.90;99.90;;;;;;5044908;28;20036;-44
2023/07/04 01:31:44;;;;;;;4.50;1.60;;;14.90;99.90;;;;;;5045538;28;20050;-42
2023/07/04 01:34:12;;;;;;;5.15;1.70;;;14.90;99.90;;;;;;5045170;28;20693;-41
2023/07/04 01:36:41;;;;;;;3.47;1.77;;;14.90;99.90;;;;;;5044355;28;20150;-42
2023/07/04 01:39:15;;;;;;;4.05;1.40;;;14.90;99.90;;;;;;5045215;28;20064;-42
2023/07/04 01:41:45;;;;;;;3.72;1.60;;;14.90;99.90;;;;;;5045068;28;20033;-42
2023/07/04 01:44:12;;;;;;;4.65;1.70;;;15.00;99.90;;;;;;5045129;28;20878;-42
2023/07/04 01:46:38;;;;;;;3.40;1.90;;;14.90;99.90;;;;;;5045629;28;20115;-42
2023/07/04 01:49:07;;;;;;;3.65;1.90;;;15.00;99.90;;;;;;5044416;28;20021;-43
2023/07/04 01:51:36;;;;;;;4.43;1.73;;;15.00;99.90;;;;;;5045379;28;20361;-41
2023/07/04 01:54:03;;;;;;;5.13;2.10;;;15.00;99.90;;;;;;5045643;28;20036;-41
2023/07/04 01:56:30;;;;;;;3.58;1.20;;;15.00;99.90;;;;;;5044325;28;20431;-41
2023/07/04 01:58:56;;;;;;;4.53;1.70;;;15.10;99.90;;;;;;5044501;28;20036;-42
2023/07/04 02:01:26;;;;;;;3.83;1.60;;;15.20;99.90;;;;;;5045562;28;20106;-42
2023/07/04 02:03:52;;;;;;;5.40;1.73;;;15.20;99.90;;;;;;5043992;28;20120;-42
2023/07/04 02:06:17;;;;;;;3.97;1.60;;;15.10;99.90;;;;;;5044935;28;20382;-42
2023/07/04 02:08:43;;;;;;;4.38;1.75;;;15.10;99.90;;;;;;5045168;28;20461;-42
2023/07/04 02:11:12;;;;;;;3.00;1.60;;;15.10;99.90;;;;;;5044125;28;20025;-42
2023/07/04 02:13:38;;;;;;;6.47;2.03;;;15.10;99.90;;;;;;5045190;28;20102;-42
2023/07/04 02:16:04;;;;;;;4.05;1.70;;;15.20;99.90;;;;;;5045086;28;20032;-42
2023/07/04 02:18:30;;;;;;;5.05;1.92;;;15.10;99.90;;;;;;5044633;28;20033;-43
2023/07/04 02:20:56;;;;;;;5.22;1.88;;;15.10;99.90;;;;;;5045476;28;20025;-42
2023/07/04 02:23:22;;;;;;;4.65;1.85;;;15.10;99.90;;;;;;5044989;28;21254;-42
2023/07/04 02:25:48;;;;;;;4.80;2.03;;;15.10;99.90;;;;;;5044580;28;20021;-41
2023/07/04 02:28:14;;;;;;;4.13;2.00;;;15.10;99.90;;;;;;5045219;28;20036;-42
2023/07/04 02:30:56;;;;;;;4.90;1.77;;;15.10;99.90;;;;;;5045206;28;20014;-41
2023/07/04 02:33:21;;;;;;;4.95;1.80;;;15.10;99.90;;;;;;5044648;28;20021;-41
2023/07/04 02:35:48;;;;;;;3.90;1.67;;;15.10;99.90;;;;;;5044216;28;20094;-41
2023/07/04 02:38:18;;;;;;;4.13;2.13;;;15.10;99.90;;;;;;5044477;28;20148;-42
2023/07/04 02:40:45;;;;;;;5.70;1.77;;;15.00;99.90;;;;;;5043025;28;20876;-42
2023/07/04 02:43:11;;;;;;;4.90;1.70;;;15.00;99.90;;;;;;5045422;28;20357;-42
2023/07/04 02:45:36;;;;;;;4.47;1.75;;;14.90;99.90;;;;;;5043976;28;20025;-42
2023/07/04 02:48:02;;;;;;;6.38;2.10;;;15.00;99.90;;;;;;5044621;28;20044;-42
2023/07/04 02:50:28;;;;;;;3.60;1.35;;;14.90;99.90;;;;;;5044242;28;20440;-42
2023/07/04 02:52:53;;;;;;;3.47;1.80;;;14.90;99.90;;;;;;5043658;28;20025;-42
2023/07/04 02:55:19;;;;;;;3.88;1.60;;;14.90;99.90;;;;;;5043887;28;20039;-42
2023/07/04 02:57:44;;;;;;;3.40;1.65;;;14.80;99.90;;;;;;5044412;28;20091;-42
2023/07/04 03:00:10;;;;;;;3.42;1.65;;;14.80;99.90;;;;;;5043332;28;20108;-42
2023/07/04 03:02:36;;;;;;;3.83;1.70;;;14.70;99.90;;;;;;5044376;28;20419;-42
2023/07/04 03:05:02;;;;;;;3.88;1.45;;;14.70;99.90;;;;;;5044527;28;20041;-42
2023/07/04 03:07:27;;;;;;;3.13;1.38;;;14.70;99.90;;;;;;5046711;28;20094;-42
2023/07/04 03:09:53;;;;;;;5.20;1.67;;;14.60;99.90;;;;;;5048674;28;20112;-42
2023/07/04 03:12:18;;;;;;;3.03;1.40;;;14.60;99.90;;;;;;5048281;28;20056;-42
2023/07/04 03:14:44;;;;;;;6.03;1.77;;;14.60;99.90;;;;;;5047488;28;20032;-42
2023/07/04 03:17:09;;;;;;;3.03;1.35;;;14.60;99.90;;;;;;5047789;28;20037;-41
2023/07/04 03:19:35;;;;;;;4.88;1.63;;;14.70;99.90;;;;;;5048067;28;20098;-42
2023/07/04 03:22:04;;;;;;;3.15;1.48;;;14.60;99.90;;;;;;5047233;28;20033;-42
2023/07/04 03:24:32;;;;;;;2.60;1.50;;;14.60;99.90;;;;;;5047996;28;20021;-42
2023/07/04 03:26:58;;;;;;;3.05;1.50;;;14.60;99.90;;;;;;5048469;28;20025;-42
2023/07/04 03:29:24;;;;;;;4.60;1.80;;;14.60;99.90;;;;;;5046976;28;20028;-42
2023/07/04 03:31:49;;;;;;;4.47;1.42;;;14.60;99.90;;;;;;5047690;28;20146;-42
2023/07/04 03:34:15;;;;;;;3.92;1.70;;;14.60;99.90;;;;;;5047118;28;20132;-42
2023/07/04 03:36:40;;;;;;;4.28;1.50;;;14.60;99.90;;;;;;5046808;28;20206;-42
2023/07/04 03:39:06;;;;;;;2.47;1.45;;;14.60;99.90;;;;;;5047230;28;20041;-42
2023/07/04 03:41:32;;;;;;;4.88;1.50;;;14.60;99.90;;;;;;5046494;28;20148;-43
2023/07/04 03:44:00;;;;;;;2.00;1.25;;;14.60;99.90;;;;;;5047270;28;20482;-43
2023/07/04 03:46:25;;;;;;;4.68;1.45;;;14.50;99.90;;;;;;5046828;28;20082;-42
2023/07/04 03:48:51;;;;;;;5.60;1.73;;;14.50;99.90;;;;;;5046276;28;20028;-43
2023/07/04 03:51:17;;;;;;;4.18;1.50;;;14.50;99.90;;;;;;5047062;28;20025;-42
2023/07/04 03:53:42;;;;;;;3.95;1.58;;;14.50;99.90;;;;;;5047309;28;20032;-42
2023/07/04 03:56:11;;;;;;;3.95;1.70;;;14.50;99.90;;;;;;5046763;28;20558;-42
2023/07/04 03:58:36;;;;;;;2.55;1.30;;;14.50;99.90;;;;;;5046719;28;20495;-42
2023/07/04 04:01:06;;;;;;;4.47;1.58;;;14.50;99.90;;;;;;5047029;28;20032;-43
2023/07/04 04:03:37;;;;;;;4.88;1.52;;;14.50;99.90;;;;;;5044834;28;20025;-42
2023/07/04 04:06:07;;;;;;;3.92;1.33;;;14.50;99.90;;;;;;5047381;28;20048;-42
2023/07/04 04:08:33;;;;;;;5.03;1.70;;;14.50;99.90;;;;;;5046371;28;20029;-42
2023/07/04 04:10:59;;;;;;;3.85;1.55;;;14.60;99.90;;;;;;5046655;28;20027;-41
2023/07/04 04:13:24;;;;;;;4.80;2.42;;;14.60;99.90;;;;;;5046235;28;20106;-41
2023/07/04 04:15:56;;;;;;;4.30;1.80;;;14.60;99.90;;;;;;5046963;28;20788;-41
2023/07/04 04:18:22;;;;;;;4.43;1.70;;;14.60;99.90;;;;;;5045163;28;20152;-41
2023/07/04 04:20:47;;;;;;;2.78;1.45;;;14.60;99.90;;;;;;5046784;28;21125;-41
2023/07/04 04:23:15;;;;;;;2.50;1.70;;;14.70;99.90;;;;;;5046454;28;20021;-41
2023/07/04 04:25:40;;;;;;;5.75;1.80;;;14.70;99.90;;;;;;5045709;28;20100;-42
2023/07/04 04:28:06;;;;;;;5.45;1.88;;;14.70;99.90;;;;;;5046305;28;20120;-41
2023/07/04 04:30:32;;;;;;;4.40;1.42;;;14.70;99.90;;;;;;5045841;28;20048;-42
2023/07/04 04:32:57;;;;;;;4.28;1.70;;;14.80;99.90;;;;;;5046997;28;20056;-41
2023/07/04 04:35:25;;;;;;;5.07;1.77;;;14.80;99.90;;;;;;5046982;28;20327;-42
2023/07/04 04:37:51;;;;;;;5.00;1.80;;;14.80;99.90;;;;;;5045512;28;20037;-42
2023/07/04 04:40:16;;;;;;;2.17;1.58;;;14.80;99.90;;;;;;5046269;28;20031;-42
2023/07/04 04:42:43;;;;;;;3.03;1.52;;;14.90;99.90;;;;;;5046632;28;20071;-42
2023/07/04 04:45:11;;;;;;;3.28;1.60;;;14.90;99.90;;;;;;5045913;28;20025;-43
2023/07/04 04:47:38;;;;;;;3.58;1.63;;;14.90;99.90;;;;;;5046499;28;20033;-42
2023/07/04 04:50:06;;;;;;;4.22;1.75;;;14.90;99.90;;;;;;5044856;28;20020;-42
2023/07/04 04:52:33;;;;;;;6.20;1.95;;;15.00;99.90;;;;;;5045202;28;20109;-43
2023/07/04 04:55:02;;;;;;;5.43;1.75;;;15.00;99.90;;;;;;5045718;28;20494;-43
2023/07/04 04:57:29;;;;;;;3.30;1.73;;;15.20;99.90;;;;;;5046069;28;20025;-40
2023/07/04 04:59:59;;;;;;;5.50;1.58;;;15.20;99.90;;;;;;5045006;28;20144;-41
2023/07/04 05:02:25;;;;;;;5.50;2.13;;;15.30;99.90;;;;;;5026238;28;20032;-41
2023/07/04 05:04:54;;;;;;;3.70;2.33;;;15.30;99.90;;;;;;5040027;28;20037;-43
2023/07/04 05:07:23;;;;;;;3.67;1.65;;;15.40;99.90;;;;;;5045367;28;20029;-42
2023/07/04 05:09:52;;;;;;;5.75;2.20;;;15.40;99.90;;;;;;5045602;28;20025;-42
2023/07/04 05:12:17;;;;;;;5.07;1.90;;;15.40;99.90;;;;;;5046840;28;20036;-42
2023/07/04 05:14:43;;;;;;;5.45;2.30;;;15.40;99.90;;;;;;5044732;28;20017;-42
2023/07/04 05:17:11;;;;;;;7.18;3.00;;;15.40;99.90;;;;;;5046021;28;20028;-42
2023/07/04 05:19:37;;;;;;;5.90;2.55;;;15.40;99.90;;;;;;5046251;28;20033;-42
2023/07/04 05:22:03;;;;;;;6.82;2.63;;;15.40;99.90;;;;;;5045448;28;20016;-41
2023/07/04 05:24:30;;;;;;;10.18;3.08;;;15.40;99.90;;;;;;5045432;28;20021;-43
2023/07/04 05:26:56;;;;;;;5.65;2.22;;;15.40;99.90;;;;;;5044818;28;20032;-42
2023/07/04 05:29:21;;;;;;;7.13;2.83;;;15.40;99.90;;;;;;5044499;28;20037;-42
2023/07/04 05:31:47;;;;;;;6.97;2.90;;;15.40;99.90;;;;;;5045569;28;20025;-42
2023/07/04 05:34:13;;;;;;;7.97;2.83;;;15.50;99.90;;;;;;5045111;28;20082;-42
2023/07/04 05:36:38;;;;;;;7.25;2.78;;;15.60;99.90;;;;;;5045382;28;20115;-42
2023/07/04 05:39:06;;;;;;;8.75;3.08;;;15.60;99.90;;;;;;5044904;28;20354;-42
2023/07/04 05:41:33;;;;;;;6.25;2.95;;;15.70;99.90;;;;;;5041508;28;20109;-42
2023/07/04 05:44:02;;;;;;;8.85;3.15;;;15.70;99.90;;;;;;5044854;28;20035;-42
2023/07/04 05:46:28;;;;;;;10.13;3.45;;;15.70;99.90;;;;;;5044284;28;20017;-42
2023/07/04 05:48:54;;;;;;;5.38;3.03;;;15.80;99.90;;;;;;5043989;28;20589;-42
2023/07/04 05:51:20;;;;;;;10.88;3.15;;;15.80;99.90;;;;;;5043750;28;20035;-43
2023/07/04 05:53:48;;;;;;;6.43;3.00;;;15.80;99.90;;;;;;5044467;28;20024;-42
2023/07/04 05:56:22;;;;;;;7.32;3.10;;;15.80;99.90;;;;;;5043521;28;20396;-42
2023/07/04 05:58:59;;;;;;;11.15;3.83;;;15.80;99.90;;;;;;5043984;28;20036;-42
2023/07/04 06:01:33;;;;;;;9.85;3.72;;;15.80;99.90;;;;;;5043606;28;20086;-42
2023/07/04 06:04:01;;;;;;;7.68;2.97;;;15.80;99.90;;;;;;5043766;28;20039;-42
2023/07/04 06:06:32;;;;;;;6.03;2.85;;;15.80;99.90;;;;;;5043440;28;20060;-42
2023/07/04 06:08:59;;;;;;;10.45;3.40;;;15.80;99.90;;;;;;5044254;28;20041;-41
2023/07/04 06:11:30;;;;;;;8.55;3.25;;;15.80;99.90;;;;;;5044420;28;20891;-42
2023/07/04 06:13:57;;;;;;;8.85;3.15;;;15.80;99.90;;;;;;5044529;28;20031;-43
2023/07/04 06:16:23;;;;;;;9.07;3.40;;;15.90;99.90;;;;;;5043372;28;20031;-42
2023/07/04 06:18:51;;;;;;;6.30;3.03;;;15.90;99.90;;;;;;5043724;28;20068;-43
2023/07/04 06:21:22;;;;;;;11.90;4.40;;;16.00;99.90;;;;;;5043204;28;20107;-43
2023/07/04 06:23:47;;;;;;;15.02;4.40;;;16.10;99.90;;;;;;5032735;28;20071;-42
2023/07/04 06:26:14;;;;;;;8.95;3.83;;;16.20;99.90;;;;;;5042812;28;20544;-42
2023/07/04 06:28:41;;;;;;;10.27;3.40;;;16.40;99.90;;;;;;5043716;28;20036;-42
2023/07/04 06:31:12;;;;;;;9.55;3.50;;;16.50;99.90;;;;;;5043008;28;20029;-42
2023/07/04 06:33:38;;;;;;;10.63;3.67;;;16.60;99.90;;;;;;5043789;28;20025;-42
2023/07/04 06:36:07;;;;;;;9.00;3.20;;;16.80;99.90;;;;;;5043491;28;20037;-41
2023/07/04 06:38:33;;;;;;;11.45;3.92;;;16.90;99.90;;;;;;5042528;28;20465;-42
2023/07/04 06:41:01;;;;;;;10.30;3.70;;;16.90;99.90;;;;;;5045167;28;20021;-42
2023/07/04 06:43:28;;;;;;;9.80;3.60;;;16.90;99.90;;;;;;5048187;28;20032;-42
2023/07/04 06:45:57;;;;;;;11.68;4.00;;;16.80;99.90;;;;;;5047495;28;20032;-43
2023/07/04 06:48:29;;;;;;;13.40;3.85;;;16.90;99.90;;;;;;5048566;28;20075;-43
2023/07/04 06:51:00;;;;;;;17.30;4.43;;;16.90;99.90;;;;;;5048528;28;20095;-42
2023/07/04 06:53:25;;;;;;;9.52;3.70;;;17.00;99.90;;;;;;5047550;28;20025;-41
2023/07/04 06:55:51;;;;;;;10.30;3.80;;;17.10;99.90;;;;;;5048611;28;20500;-42
2023/07/04 06:58:17;;;;;;;9.45;4.00;;;17.20;99.90;;;;;;5047736;28;20127;-42
2023/07/04 07:00:42;;;;;;;11.43;4.00;;;17.20;99.90;;;;;;5048191;28;20029;-42
2023/07/04 07:03:08;;;;;;;13.48;3.47;;;17.30;99.90;;;;;;5047912;28;20079;-42
2023/07/04 07:05:40;;;;;;;7.38;3.05;;;17.30;99.90;;;;;;5047387;28;20052;-42
2023/07/04 07:08:06;;;;;;;12.38;3.78;;;17.30;99.90;;;;;;5047975;28;20032;-42
2023/07/04 07:10:36;;;;;;;7.13;3.10;;;17.40;99.90;;;;;;5047850;28;20040;-43
2023/07/04 07:13:02;;;;;;;13.20;4.03;;;17.50;99.90;;;;;;5047852;28;20033;-43
2023/07/04 07:15:28;;;;;;;12.52;4.28;;;17.70;99.90;;;;;;5048075;28;20029;-42
2023/07/04 07:17:53;;;;;;;8.68;3.42;;;17.70;99.90;;;;;;5047394;28;20510;-42
2023/07/04 07:20:19;;;;;;;13.13;4.25;;;17.80;99.90;;;;;;5047330;28;20590;-42
2023/07/04 07:22:46;;;;;;;13.38;4.00;;;17.90;99.90;;;;;;5047486;28;20067;-42
2023/07/04 07:25:11;;;;;;;12.23;4.35;;;17.90;99.90;;;;;;5047475;28;20017;-42
2023/07/04 07:27:37;;;;;;;11.90;3.90;;;17.90;99.90;;;;;;5047501;28;20044;-42
2023/07/04 07:30:03;;;;;;;9.30;3.35;;;17.90;99.90;;;;;;5047545;28;20111;-43
2023/07/04 07:32:28;;;;;;;9.90;3.65;;;17.90;99.90;;;;;;5047368;28;20376;-44
2023/07/04 07:34:54;;;;;;;11.45;3.53;;;17.90;99.90;;;;;;5046717;28;20036;-42
2023/07/04 07:37:20;;;;;;;10.45;3.90;;;17.80;99.90;;;;;;5047148;28;20157;-43
2023/07/04 07:39:45;;;;;;;9.32;3.55;;;17.80;99.90;;;;;;5047314;28;20032;-42
2023/07/04 07:42:12;;;;;;;10.93;3.78;;;17.70;99.90;;;;;;5046873;28;20025;-43
2023/07/04 07:44:38;;;;;;;10.95;3.28;;;17.60;99.90;;;;;;5047994;28;20112;-43
2023/07/04 07:47:04;;;;;;;9.70;3.53;;;17.60;99.90;;;;;;5047973;28;20107;-42
2023/07/04 07:49:29;;;;;;;10.30;2.60;;;17.80;99.90;;;;;;5047039;28;20036;-43
2023/07/04 07:51:57;;;;;;;8.52;2.67;;;18.00;99.90;;;;;;5047176;28;20086;-43
2023/07/04 07:54:22;;;;;;;12.88;3.20;;;18.10;99.90;;;;;;5046134;28;20020;-42
2023/07/04 07:56:48;;;;;;;9.85;3.20;;;18.30;99.90;;;;;;5046653;28;20024;-42
2023/07/04 07:59:14;;;;;;;8.57;2.60;;;18.30;99.90;;;;;;5047373;28;20048;-42
2023/07/04 08:01:46;;;;;;;6.25;2.50;;;18.30;99.90;;;;;;5046726;28;20013;-42
2023/07/04 08:04:14;;;;;;;10.38;3.08;;;18.30;99.90;;;;;;5047168;28;20025;-42
2023/07/04 08:06:43;;;;;;;8.40;2.53;;;18.30;99.90;;;;;;5045429;28;20083;-42
2023/07/04 08:09:11;;;;;;;10.07;2.47;;;18.20;99.90;;;;;;5046220;28;20507;-43
2023/07/04 08:11:38;;;;;;;8.10;2.17;;;18.20;99.90;;;;;;5046147;28;20618;-42
2023/07/04 08:14:07;;;;;;;6.28;2.25;;;18.20;99.90;;;;;;5046565;28;20473;-43
2023/07/04 08:16:41;;;;;;;5.57;1.58;;;18.10;99.90;;;;;;5045686;28;20033;-42
2023/07/04 08:19:07;;;;;;;3.38;2.08;;;18.10;99.90;;;;;;5046450;28;20126;-42
2023/07/04 08:21:33;;;;;;;7.88;2.40;;;18.10;99.90;;;;;;5046427;28;20461;-42
2023/07/04 08:23:58;;;;;;;4.63;1.80;;;18.10;99.90;;;;;;5046092;28;20056;-42
2023/07/04 08:26:25;;;;;;;5.50;2.05;;;18.10;99.90;;;;;;5046556;28;20112;-42
2023/07/04 08:28:56;;;;;;;8.80;2.65;;;18.20;99.90;;;;;;5046616;28;20035;-42
2023/07/04 08:31:24;;;;;;;7.45;2.38;;;18.20;99.90;;;;;;5045412;28;20408;-41
2023/07/04 08:33:53;;;;;;;6.32;2.00;;;18.20;99.90;;;;;;5046861;28;20024;-42
2023/07/04 08:36:19;;;;;;;6.85;1.98;;;18.20;99.90;;;;;;5046040;28;20017;-41
2023/07/04 08:38:53;;;;;;;3.80;2.08;;;18.30;99.90;;;;;;5043730;28;20033;-41
2023/07/04 08:41:43;;;;;;;4.50;1.77;;;18.30;99.90;;;;;;5046558;28;20503;-42
2023/07/04 08:44:09;;;;;;;7.75;2.33;;;18.30;99.90;;;;;;5045886;28;20044;-42
2023/07/04 08:46:55;;;;;;;5.45;2.05;;;18.40;99.90;;;;;;5045885;28;20021;-42
2023/07/04 08:49:52;;;;;;;4.95;1.70;;;18.50;99.90;;;;;;5047948;28;20190;-41
2023/07/04 08:52:40;;;;;;;4.70;2.03;;;18.60;99.90;;;;;;5052364;28;20064;-43
2023/07/04 08:55:13;;;;;;;6.93;2.22;;;18.80;99.90;;;;;;5046444;28;20031;-42
2023/07/04 08:57:53;;;;;;;8.20;2.10;;;18.90;99.90;;;;;;5045631;28;20033;-43
2023/07/04 09:00:27;;;;;;;8.27;2.60;;;18.90;99.90;;;;;;5026579;28;20041;-42
2023/07/04 09:03:24;;;;;;;7.00;2.08;;;19.00;99.90;;;;;;5041587;28;20025;-43
2023/07/04 09:06:08;;;;;;;10.20;2.92;;;19.00;99.90;;;;;;5024911;28;20145;-42
2023/07/04 09:08:55;;;;;;;7.47;2.22;;;19.10;99.90;;;;;;5045139;28;20048;-42
2023/07/04 09:11:23;;;;;;;7.63;2.28;;;19.10;99.90;;;;;;5046180;28;20373;-43
2023/07/04 09:13:57;;;;;;;6.93;2.30;;;19.10;99.90;;;;;;5044425;28;20032;-42
2023/07/04 09:16:34;;;;;;;6.18;2.28;;;19.30;99.90;;;;;;5045579;28;20029;-42
2023/07/04 09:19:05;;;;;;;5.63;1.90;;;19.30;99.90;;;;;;5045163;28;20044;-42
2023/07/04 09:21:32;;;;;;;5.15;1.83;;;19.40;99.90;;;;;;5045663;28;20017;-41
2023/07/04 09:23:59;;;;;;;9.35;2.38;;;19.50;99.90;;;;;;5045375;28;20389;-42
2023/07/04 09:26:30;;;;;;;5.85;2.00;;;19.60;99.90;;;;;;5045065;28;20025;-42
2023/07/04 09:28:57;;;;;;;6.57;1.90;;;19.60;99.90;;;;;;5045679;28;20036;-42
2023/07/04 09:31:29;;;;;;;6.93;2.15;;;19.60;99.90;;;;;;5025912;28;20080;-43
2023/07/04 09:34:04;;;;;;;;;;;19.60;99.90;;;;;;5040235;28;20021;-43
2023/07/04 09:36:32;;;;;;;6.47;2.05;;;19.70;99.90;;;;;;5046027;28;19916;-43
2023/07/04 09:39:06;;;;;;;5.47;1.90;;;19.80;99.90;;;;;;5045470;28;20072;-43
2023/07/04 09:41:36;;;;;;;8.18;2.38;;;19.90;99.90;;;;;;5044545;28;20409;-43
2023/07/04 09:44:34;;;;;;;6.20;2.20;;;19.90;99.90;;;;;;5044887;28;20128;-41
2023/07/04 09:47:01;;;;;;;5.60;1.92;;;20.00;99.90;;;;;;5025224;28;20029;-42
2023/07/04 09:49:33;;;;;;;5.95;1.92;;;20.00;99.90;;;;;;5040275;28;20051;-41
2023/07/04 09:52:06;;;;;;;7.10;2.05;;;20.10;99.90;;;;;;5045060;28;20063;-41
2023/07/04 09:54:34;;;;;;;6.30;2.00;;;20.00;99.90;;;;;;5044135;28;20075;-41
2023/07/04 09:57:16;;;;;;;7.70;2.10;;;20.00;99.90;;;;;;5044596;28;20067;-43
2023/07/04 09:59:42;;;;;;;3.30;1.55;;;20.00;99.90;;;;;;5044263;28;20068;-41
2023/07/04 10:02:38;;;;;;;9.23;2.47;;;19.90;99.90;;;;;;5044445;28;20035;-42
2023/07/04 10:05:04;;;;;;;6.35;1.95;;;19.90;99.90;;;;;;5043171;28;20136;-43
2023/07/04 10:07:30;;;;;;;7.35;2.38;;;19.90;99.90;;;;;;5044629;28;20127;-40
2023/07/04 10:10:01;;;;;;;7.82;2.10;;;19.80;99.90;;;;;;5044559;28;20785;-42
2023/07/04 10:12:32;;;;;;;4.50;1.77;;;19.90;99.90;;;;;;5045208;28;20033;-42
2023/07/04 10:14:59;;;;;;;6.18;1.77;;;20.00;99.90;;;;;;5044941;28;20618;-42
2023/07/04 10:17:28;;;;;;;5.88;2.20;;;20.00;99.90;;;;;;5044106;28;20110;-42
2023/07/04 10:20:05;;;;;;;6.47;1.75;;;20.10;99.90;;;;;;5044945;28;20389;-42
2023/07/04 10:22:40;;;;;;;5.85;2.35;;;20.10;99.80;;;;;;5043967;28;20025;-43
2023/07/04 10:25:18;;;;;;;5.93;1.90;;;20.10;99.40;;;;;;5045064;28;20254;-43
2023/07/04 10:27:51;;;;;;;5.10;1.80;;;20.20;99.50;;;;;;5044413;28;20460;-42
2023/07/04 10:30:23;;;;;;;5.30;2.15;;;20.20;99.10;;;;;;5043406;28;20025;-42
2023/07/04 10:32:52;;;;;;;6.45;2.00;;;20.20;98.90;;;;;;5044134;28;20040;-42
2023/07/04 10:35:22;;;;;;;4.50;1.75;;;20.20;98.70;;;;;;5044905;28;20103;-42
2023/07/04 10:38:23;;;;;;;7.40;1.95;;;20.20;98.90;;;;;;5043955;28;20103;-42
2023/07/04 10:40:53;;;;;;;6.43;1.92;;;20.30;99.00;;;;;;5044501;28;20272;-42
2023/07/04 10:43:35;;;;;;;3.88;1.40;;;20.40;98.90;;;;;;5044148;28;20770;-42
2023/07/04 10:46:06;;;;;;;5.28;1.88;;;20.40;98.90;;;;;;5044836;28;20025;-42
2023/07/04 10:48:38;;;;;;;6.35;2.13;;;20.50;98.60;;;;;;5044554;28;20025;-42
2023/07/04 10:51:22;;;;;;;5.10;1.75;;;20.50;98.50;;;;;;5044201;28;20025;-41
2023/07/04 10:53:49;;;;;;;5.78;1.77;;;20.50;98.10;;;;;;5044905;28;20037;-42
2023/07/04 10:56:20;;;;;;;4.65;1.70;;;20.50;98.00;;;;;;5044062;28;20021;-42
2023/07/04 10:58:51;;;;;;;4.93;2.20;;;20.60;97.80;;;;;;5043838;28;20041;-42
2023/07/04 11:01:23;;;;;;;4.53;1.80;;;20.70;97.30;;;;;;5044545;28;20299;-42
2023/07/04 11:04:09;;;;;;;6.40;2.20;;;20.90;97.60;;;;;;5044209;28;20032;-42
2023/07/04 11:06:48;;;;;;;4.80;1.73;;;21.10;97.60;;;;;;5043396;28;20037;-42
2023/07/04 11:09:16;;;;;;;7.53;1.85;;;21.20;97.10;;;;;;5044372;28;20036;-42
2023/07/04 11:11:49;;;;;;;4.63;1.60;;;21.40;96.70;;;;;;5043423;28;20043;-43
2023/07/04 11:14:27;;;;;;;3.33;1.60;;;21.50;96.70;;;;;;5044481;28;20025;-42
2023/07/04 11:16:54;;;;;;;6.57;1.85;;;21.70;96.80;;;;;;5044380;28;20136;-42
2023/07/04 11:19:27;;;;;;;5.53;1.48;;;21.90;96.70;;;;;;5043765;28;20097;-43
2023/07/04 11:21:54;;;;;;;4.50;1.80;;;22.00;96.30;;;;;;5043806;28;20134;-42
2023/07/04 11:24:20;;;;;;;6.22;1.75;;;22.00;96.10;;;;;;5044254;28;20029;-42
2023/07/04 11:26:59;;;;;;;4.75;1.75;;;22.00;94.80;;;;;;5043432;28;20511;-42
2023/07/04 11:29:25;;;;;;;5.35;1.52;;;21.90;94.60;;;;;;5047906;28;20052;-42
2023/07/04 11:32:03;;;;;;;5.80;1.83;;;22.00;94.10;;;;;;5047705;28;20052;-42
2023/07/04 11:34:54;;;;;;;3.85;1.58;;;22.10;93.90;;;;;;5046836;28;20392;-42
2023/07/04 11:37:52;;;;;;;8.60;2.15;;;22.10;93.90;;;;;;5047626;28;20029;-42
2023/07/04 11:40:25;;;;;;;6.28;1.75;;;22.20;93.20;;;;;;5046556;28;20183;-41
2023/07/04 11:42:55;;;;;;;4.07;1.58;;;22.10;93.00;;;;;;5047378;28;20017;-41
2023/07/04 11:45:25;;;;;;;4.07;1.60;;;22.10;93.30;;;;;;5047434;28;20207;-42
2023/07/04 11:47:56;;;;;;;3.53;1.58;;;22.20;93.60;;;;;;5046474;28;20028;-42
2023/07/04 11:50:44;;;;;;;5.18;1.77;;;22.20;92.80;;;;;;5047635;28;20029;-41
2023/07/04 11:53:33;;;;;;;3.38;1.40;;;22.10;93.00;;;;;;5047703;28;20094;-42
2023/07/04 11:56:16;;;;;;;4.50;1.70;;;22.10;93.20;;;;;;5045960;28;20032;-42
2023/07/04 11:58:45;;;;;;;3.53;1.52;;;22.00;92.60;;;;;;5047006;28;20055;-42
2023/07/04 12:01:12;;;;;;;6.25;1.73;;;22.00;92.60;;;;;;5046555;28;20021;-44
2023/07/04 12:03:57;;;;;;;4.03;1.55;;;22.00;92.70;;;;;;5046461;28;20500;-42
2023/07/04 12:07:05;;;;;;;4.07;1.38;;;22.00;92.20;;;;;;5046957;28;20560;-42
2023/07/04 12:09:36;;;;;;;4.65;1.73;;;22.00;92.40;;;;;;5039010;28;20040;-41
2023/07/04 12:12:05;;;;;;;4.13;1.63;;;22.00;92.30;;;;;;5046873;28;20572;-42
2023/07/04 12:14:34;;;;;;;4.07;1.60;;;22.00;92.60;;;;;;5046334;28;20100;-42
2023/07/04 12:17:00;;;;;;;3.40;1.70;;;22.10;92.80;;;;;;5046492;28;20358;-42
2023/07/04 12:19:29;;;;;;;4.68;1.75;;;22.20;92.40;;;;;;5046271;28;20033;-43
2023/07/04 12:21:57;;;;;;;5.97;1.70;;;22.30;91.70;;;;;;5046028;28;20028;-43
2023/07/04 12:24:24;;;;;;;4.38;1.60;;;22.30;91.90;;;;;;5046368;28;20025;-41
2023/07/04 12:26:58;;;;;;;4.43;1.38;;;22.30;91.80;;;;;;5046760;28;20388;-41
2023/07/04 12:29:25;;;;;;;3.97;1.50;;;22.20;91.80;;;;;;5046037;28;20025;-42
2023/07/04 12:32:03;;;;;;;4.28;1.58;;;22.10;91.70;;;;;;5046234;28;20415;-42
2023/07/04 12:34:28;;;;;;;3.45;1.50;;;22.00;91.60;;;;;;5046582;28;20021;-42
2023/07/04 12:37:02;;;;;;;5.85;1.90;;;22.10;91.70;;;;;;5045767;28;20031;-43
2023/07/04 12:39:31;;;;;;;6.05;2.03;;;22.10;91.80;;;;;;5045752;28;20040;-42
2023/07/04 12:42:00;;;;;;;4.30;1.65;;;22.00;91.20;;;;;;5046527;28;20056;-43
2023/07/04 12:44:25;;;;;;;6.18;2.20;;;21.90;91.40;;;;;;5045701;28;20113;-43
2023/07/04 12:46:51;;;;;;;4.18;1.98;;;21.90;91.70;;;;;;5045840;28;20027;-42
2023/07/04 12:49:20;;;;;;;3.55;1.60;;;22.00;91.50;;;;;;5046315;28;20021;-43
2023/07/04 12:51:46;;;;;;;7.20;1.70;;;22.10;91.60;;;;;;5034834;28;20625;-43
2023/07/04 12:54:14;;;;;;;6.47;1.95;;;22.20;91.40;;;;;;5046080;28;20029;-42
2023/07/04 12:56:46;;;;;;;4.05;1.50;;;22.20;91.60;;;;;;5046732;28;20104;-42
2023/07/04 12:59:32;;;;;;;3.03;1.58;;;22.30;91.10;;;;;;5062746;28;20043;-42